sensor_id;sensor_type;location;lat;lon;timestamp;temperature;humidity
1025;DHT22;501;48.214;11.350;2024-03-23T00:53:41;10.60;32.90
1025;DHT22;501;48.214;11.350;2024-03-23T00:56:07;10.60;33.00
1025;DHT22;501;48.214;11.350;2024-03-23T00:58:33;10.60;33.20
1025;DHT22;501;48.214;11.350;2024-03-23T01:00:58;10.60;33.00
1025;DHT22;501;48.214;11.350;2024-03-23T01:03:24;10.60;33.40
1025;DHT22;501;48.214;11.350;2024-03-23T01:05:50;10.60;32.70
1025;DHT22;501;48.214;11.350;2024-03-23T01:08:15;10.70;33.00
1025;DHT22;501;48.214;11.350;2024-03-23T01:10:41;10.70;32.40
1025;DHT22;501;48.214;11.350;2024-03-23T01:13:06;10.80;32.10
1025;DHT22;501;48.214;11.350;2024-03-23T01:15:32;10.80;31.80
1025;DHT22;501;48.214;11.350;2024-03-23T01:17:58;10.90;31.90
1025;DHT22;501;48.214;11.350;2024-03-23T01:20:23;10.90;31.60
1025;DHT22;501;48.214;11.350;2024-03-23T01:22:49;11.00;32.00
1025;DHT22;501;48.214;11.350;2024-03-23T01:25:14;11.00;31.40
1025;DHT22;501;48.214;11.350;2024-03-23T01:27:40;11.10;31.70
1025;DHT22;501;48.214;11.350;2024-03-23T01:30:06;11.10;31.40
1025;DHT22;501;48.214;11.350;2024-03-23T01:32:33;11.10;30.60
1025;DHT22;501;48.214;11.350;2024-03-23T01:34:59;11.10;31.10
1025;DHT22;501;48.214;11.350;2024-03-23T01:37:25;11.20;30.50
1025;DHT22;501;48.214;11.350;2024-03-23T01:39:51;11.20;29.80
1025;DHT22;501;48.214;11.350;2024-03-23T01:42:16;11.20;29.90
1025;DHT22;501;48.214;11.350;2024-03-23T01:44:42;11.20;29.90
1025;DHT22;501;48.214;11.350;2024-03-23T01:47:07;11.30;29.70
1025;DHT22;501;48.214;11.350;2024-03-23T01:49:33;11.30;29.70
1025;DHT22;501;48.214;11.350;2024-03-23T01:51:59;11.30;29.60
1025;DHT22;501;48.214;11.350;2024-03-23T01:54:25;11.30;29.70
1025;DHT22;501;48.214;11.350;2024-03-23T01:56:51;11.30;29.60
1025;DHT22;501;48.214;11.350;2024-03-23T01:59:16;11.30;29.80
1025;DHT22;501;48.214;11.350;2024-03-23T02:01:42;11.30;29.80
1025;DHT22;501;48.214;11.350;2024-03-23T02:04:08;11.30;30.00
1025;DHT22;501;48.214;11.350;2024-03-23T02:06:35;11.30;30.10
1025;DHT22;501;48.214;11.350;2024-03-23T02:09:00;11.20;30.10
1025;DHT22;501;48.214;11.350;2024-03-23T02:11:26;11.20;30.30
1025;DHT22;501;48.214;11.350;2024-03-23T02:13:52;11.10;30.20
1025;DHT22;501;48.214;11.350;2024-03-23T02:16:17;11.10;30.30
1025;DHT22;501;48.214;11.350;2024-03-23T02:18:43;11.10;30.50
1025;DHT22;501;48.214;11.350;2024-03-23T02:21:09;11.10;30.70
1025;DHT22;501;48.214;11.350;2024-03-23T02:23:34;11.00;30.70
1025;DHT22;501;48.214;11.350;2024-03-23T02:26:00;11.00;30.80
1025;DHT22;501;48.214;11.350;2024-03-23T02:28:26;11.00;31.00
1025;DHT22;501;48.214;11.350;2024-03-23T02:30:52;11.00;31.30
1025;DHT22;501;48.214;11.350;2024-03-23T02:33:18;11.00;31.30
1025;DHT22;501;48.214;11.350;2024-03-23T02:35:44;11.00;32.00
1025;DHT22;501;48.214;11.350;2024-03-23T02:38:10;10.90;31.90
1025;DHT22;501;48.214;11.350;2024-03-23T02:40:36;10.90;31.90
1025;DHT22;501;48.214;11.350;2024-03-23T02:43:02;10.90;31.90
1025;DHT22;501;48.214;11.350;2024-03-23T02:45:28;10.90;32.30
1025;DHT22;501;48.214;11.350;2024-03-23T02:47:54;10.80;31.80
1025;DHT22;501;48.214;11.350;2024-03-23T02:50:20;10.70;32.00
1025;DHT22;501;48.214;11.350;2024-03-23T02:52:46;10.80;32.80
1025;DHT22;501;48.214;11.350;2024-03-23T02:55:11;10.70;32.50
1025;DHT22;501;48.214;11.350;2024-03-23T02:57:37;10.70;32.70
1025;DHT22;501;48.214;11.350;2024-03-23T03:00:03;10.70;33.20
1025;DHT22;501;48.214;11.350;2024-03-23T03:02:33;10.60;33.40
1025;DHT22;501;48.214;11.350;2024-03-23T03:04:58;10.60;33.40
1025;DHT22;501;48.214;11.350;2024-03-23T03:07:24;10.60;34.10
1025;DHT22;501;48.214;11.350;2024-03-23T03:09:51;10.50;34.20
1025;DHT22;501;48.214;11.350;2024-03-23T03:12:17;10.50;33.90
1025;DHT22;501;48.214;11.350;2024-03-23T03:14:42;10.50;34.00
1025;DHT22;501;48.214;11.350;2024-03-23T03:17:08;10.40;33.90
1025;DHT22;501;48.214;11.350;2024-03-23T03:19:34;10.40;34.00
1025;DHT22;501;48.214;11.350;2024-03-23T03:21:59;10.30;33.70
1025;DHT22;501;48.214;11.350;2024-03-23T03:24:25;10.30;34.20
1025;DHT22;501;48.214;11.350;2024-03-23T03:26:51;10.30;34.10
1025;DHT22;501;48.214;11.350;2024-03-23T03:29:17;10.30;34.60
1025;DHT22;501;48.214;11.350;2024-03-23T03:31:43;10.30;34.40
1025;DHT22;501;48.214;11.350;2024-03-23T03:34:09;10.20;34.80
1025;DHT22;501;48.214;11.350;2024-03-23T03:36:34;10.20;35.40
1025;DHT22;501;48.214;11.350;2024-03-23T03:39:00;10.20;35.40
1025;DHT22;501;48.214;11.350;2024-03-23T03:41:26;10.10;35.60
1025;DHT22;501;48.214;11.350;2024-03-23T03:43:51;10.10;35.30
1025;DHT22;501;48.214;11.350;2024-03-23T03:46:17;10.00;35.70
1025;DHT22;501;48.214;11.350;2024-03-23T03:48:42;10.00;35.70
1025;DHT22;501;48.214;11.350;2024-03-23T03:51:10;9.90;37.60
1025;DHT22;501;48.214;11.350;2024-03-23T03:53:36;9.90;38.00
1025;DHT22;501;48.214;11.350;2024-03-23T03:56:02;9.90;38.40
1025;DHT22;501;48.214;11.350;2024-03-23T03:58:28;9.90;39.10
1025;DHT22;501;48.214;11.350;2024-03-23T04:00:53;9.90;38.80
1025;DHT22;501;48.214;11.350;2024-03-23T04:03:19;9.90;38.90
1025;DHT22;501;48.214;11.350;2024-03-23T04:05:53;9.90;38.90
1025;DHT22;501;48.214;11.350;2024-03-23T04:08:19;9.90;38.70
1025;DHT22;501;48.214;11.350;2024-03-23T04:10:45;9.90;38.90
1025;DHT22;501;48.214;11.350;2024-03-23T04:13:12;9.90;38.40
1025;DHT22;501;48.214;11.350;2024-03-23T04:15:37;9.90;38.60
1025;DHT22;501;48.214;11.350;2024-03-23T04:18:03;9.90;38.50
1025;DHT22;501;48.214;11.350;2024-03-23T04:20:29;9.90;38.60
1025;DHT22;501;48.214;11.350;2024-03-23T04:22:54;9.90;38.20
1025;DHT22;501;48.214;11.350;2024-03-23T04:25:20;9.90;38.50
1025;DHT22;501;48.214;11.350;2024-03-23T04:27:46;9.90;38.20
1025;DHT22;501;48.214;11.350;2024-03-23T04:30:12;9.90;37.80
1025;DHT22;501;48.214;11.350;2024-03-23T04:32:38;10.10;36.20
1025;DHT22;501;48.214;11.350;2024-03-23T04:35:04;10.20;35.70
1025;DHT22;501;48.214;11.350;2024-03-23T04:37:35;10.40;35.20
1025;DHT22;501;48.214;11.350;2024-03-23T04:40:01;10.50;35.10
1025;DHT22;501;48.214;11.350;2024-03-23T04:42:31;10.60;34.70
1025;DHT22;501;48.214;11.350;2024-03-23T04:44:56;10.70;34.30
1025;DHT22;501;48.214;11.350;2024-03-23T04:47:22;10.80;34.00
1025;DHT22;501;48.214;11.350;2024-03-23T04:49:48;10.90;33.90
1025;DHT22;501;48.214;11.350;2024-03-23T04:52:14;11.00;33.20
1025;DHT22;501;48.214;11.350;2024-03-23T04:54:40;11.10;32.70
1025;DHT22;501;48.214;11.350;2024-03-23T04:57:06;11.20;32.20
1025;DHT22;501;48.214;11.350;2024-03-23T04:59:32;11.30;32.20
1025;DHT22;501;48.214;11.350;2024-03-23T05:01:58;11.30;32.30
1025;DHT22;501;48.214;11.350;2024-03-23T05:04:25;11.30;32.20
1025;DHT22;501;48.214;11.350;2024-03-23T05:06:50;11.40;31.90
1025;DHT22;501;48.214;11.350;2024-03-23T05:09:16;11.40;32.30
1025;DHT22;501;48.214;11.350;2024-03-23T05:11:42;11.50;32.00
1025;DHT22;501;48.214;11.350;2024-03-23T05:14:08;11.50;32.00
1025;DHT22;501;48.214;11.350;2024-03-23T05:16:34;11.60;31.20
1025;DHT22;501;48.214;11.350;2024-03-23T05:18:59;11.60;31.20
1025;DHT22;501;48.214;11.350;2024-03-23T05:21:27;11.60;31.00
1025;DHT22;501;48.214;11.350;2024-03-23T05:23:55;11.60;30.80
1025;DHT22;501;48.214;11.350;2024-03-23T05:26:22;11.60;30.70
1025;DHT22;501;48.214;11.350;2024-03-23T05:28:48;11.60;30.40
1025;DHT22;501;48.214;11.350;2024-03-23T05:31:26;11.60;30.00
1025;DHT22;501;48.214;11.350;2024-03-23T05:33:51;11.70;29.80
1025;DHT22;501;48.214;11.350;2024-03-23T05:36:17;11.80;30.50
1025;DHT22;501;48.214;11.350;2024-03-23T05:38:43;11.80;30.00
1025;DHT22;501;48.214;11.350;2024-03-23T05:41:09;11.90;30.00
1025;DHT22;501;48.214;11.350;2024-03-23T05:43:34;11.90;29.80
1025;DHT22;501;48.214;11.350;2024-03-23T05:46:00;12.00;29.70
1025;DHT22;501;48.214;11.350;2024-03-23T05:48:34;12.10;29.70
1025;DHT22;501;48.214;11.350;2024-03-23T05:51:00;12.10;29.60
1025;DHT22;501;48.214;11.350;2024-03-23T05:53:26;12.20;29.20
1025;DHT22;501;48.214;11.350;2024-03-23T05:55:59;12.30;28.90
1025;DHT22;501;48.214;11.350;2024-03-23T05:58:25;12.40;29.20
1025;DHT22;501;48.214;11.350;2024-03-23T06:01:02;12.40;29.20
1025;DHT22;501;48.214;11.350;2024-03-23T06:03:28;12.50;29.10
1025;DHT22;501;48.214;11.350;2024-03-23T06:05:55;12.50;29.00
1025;DHT22;501;48.214;11.350;2024-03-23T06:08:21;12.60;29.10
1025;DHT22;501;48.214;11.350;2024-03-23T06:10:47;12.60;29.00
1025;DHT22;501;48.214;11.350;2024-03-23T06:13:13;12.70;29.10
1025;DHT22;501;48.214;11.350;2024-03-23T06:15:39;12.80;29.40
1025;DHT22;501;48.214;11.350;2024-03-23T06:18:04;12.80;29.50
1025;DHT22;501;48.214;11.350;2024-03-23T06:20:34;12.90;29.20
1025;DHT22;501;48.214;11.350;2024-03-23T06:23:01;12.90;29.50
1025;DHT22;501;48.214;11.350;2024-03-23T06:25:27;13.00;29.90
1025;DHT22;501;48.214;11.350;2024-03-23T06:27:53;13.00;29.70
1025;DHT22;501;48.214;11.350;2024-03-23T06:30:18;13.00;29.50
1025;DHT22;501;48.214;11.350;2024-03-23T06:32:44;13.00;28.90
1025;DHT22;501;48.214;11.350;2024-03-23T06:35:09;13.10;29.50
1025;DHT22;501;48.214;11.350;2024-03-23T06:37:38;13.10;28.80
1025;DHT22;501;48.214;11.350;2024-03-23T06:40:07;13.20;28.50
1025;DHT22;501;48.214;11.350;2024-03-23T06:42:35;13.20;28.70
1025;DHT22;501;48.214;11.350;2024-03-23T06:45:02;13.20;29.10
1025;DHT22;501;48.214;11.350;2024-03-23T06:47:28;13.30;29.10
1025;DHT22;501;48.214;11.350;2024-03-23T06:49:54;13.40;28.80
1025;DHT22;501;48.214;11.350;2024-03-23T06:52:20;13.50;28.40
1025;DHT22;501;48.214;11.350;2024-03-23T06:54:45;13.60;29.10
1025;DHT22;501;48.214;11.350;2024-03-23T06:57:11;13.70;29.10
1025;DHT22;501;48.214;11.350;2024-03-23T06:59:37;13.90;28.30
1025;DHT22;501;48.214;11.350;2024-03-23T08:01:54;11.60;51.50
1025;DHT22;501;48.214;11.350;2024-03-23T08:04:20;11.50;53.40
1025;DHT22;501;48.214;11.350;2024-03-23T08:06:46;11.50;53.80
1025;DHT22;501;48.214;11.350;2024-03-23T08:09:11;11.50;54.30
1025;DHT22;501;48.214;11.350;2024-03-23T08:28:06;10.30;56.10
1025;DHT22;501;48.214;11.350;2024-03-23T08:30:35;10.20;56.90
1025;DHT22;501;48.214;11.350;2024-03-23T09:14:38;9.70;70.00
1025;DHT22;501;48.214;11.350;2024-03-23T09:17:04;9.70;70.80
1025;DHT22;501;48.214;11.350;2024-03-23T09:19:30;9.70;72.00
1025;DHT22;501;48.214;11.350;2024-03-23T09:47:50;9.40;59.40
1025;DHT22;501;48.214;11.350;2024-03-23T09:50:17;9.30;60.70
1025;DHT22;501;48.214;11.350;2024-03-23T10:04:50;9.20;60.30
1025;DHT22;501;48.214;11.350;2024-03-23T10:07:18;9.20;62.10
1025;DHT22;501;48.214;11.350;2024-03-23T10:09:44;9.10;59.30
1025;DHT22;501;48.214;11.350;2024-03-23T12:32:02;9.50;32.40
1025;DHT22;501;48.214;11.350;2024-03-23T12:34:29;9.50;31.60
1025;DHT22;501;48.214;11.350;2024-03-23T12:36:57;9.60;33.30
1025;DHT22;501;48.214;11.350;2024-03-23T12:39:23;9.50;34.10
1025;DHT22;501;48.214;11.350;2024-03-23T12:41:57;9.50;32.60
1025;DHT22;501;48.214;11.350;2024-03-23T12:44:22;9.60;31.70
1025;DHT22;501;48.214;11.350;2024-03-23T12:46:48;9.50;32.60
1025;DHT22;501;48.214;11.350;2024-03-23T12:49:14;9.50;32.60
1025;DHT22;501;48.214;11.350;2024-03-23T12:54:24;9.50;32.80
1025;DHT22;501;48.214;11.350;2024-03-23T12:56:50;9.50;34.00
1025;DHT22;501;48.214;11.350;2024-03-23T12:59:16;9.60;33.90
1025;DHT22;501;48.214;11.350;2024-03-23T13:20:22;9.60;33.50
1025;DHT22;501;48.214;11.350;2024-03-23T13:22:48;9.60;31.70
1025;DHT22;501;48.214;11.350;2024-03-23T13:25:14;9.50;32.10
1025;DHT22;501;48.214;11.350;2024-03-23T13:27:39;9.60;32.60
1025;DHT22;501;48.214;11.350;2024-03-23T13:30:05;9.60;31.70
1025;DHT22;501;48.214;11.350;2024-03-23T13:32:32;9.60;32.20
1025;DHT22;501;48.214;11.350;2024-03-23T13:34:57;9.50;31.30
1025;DHT22;501;48.214;11.350;2024-03-23T13:37:23;9.50;31.60
1025;DHT22;501;48.214;11.350;2024-03-23T13:39:48;9.40;31.50
1025;DHT22;501;48.214;11.350;2024-03-23T13:42:14;9.40;33.90
1025;DHT22;501;48.214;11.350;2024-03-23T13:44:41;9.20;32.60
1025;DHT22;501;48.214;11.350;2024-03-23T13:47:07;8.90;36.50
1025;DHT22;501;48.214;11.350;2024-03-23T13:49:33;8.70;37.90
1025;DHT22;501;48.214;11.350;2024-03-23T13:51:59;8.60;38.30
1025;DHT22;501;48.214;11.350;2024-03-23T13:54:28;8.50;39.90
1025;DHT22;501;48.214;11.350;2024-03-23T13:56:55;8.40;41.50
1025;DHT22;501;48.214;11.350;2024-03-23T13:59:22;8.30;40.30
1025;DHT22;501;48.214;11.350;2024-03-23T14:01:48;8.30;41.20
1025;DHT22;501;48.214;11.350;2024-03-23T14:04:14;8.30;39.80
1025;DHT22;501;48.214;11.350;2024-03-23T14:06:42;8.20;33.70
1025;DHT22;501;48.214;11.350;2024-03-23T14:09:10;8.20;29.40
1025;DHT22;501;48.214;11.350;2024-03-23T14:11:36;8.10;28.60
1025;DHT22;501;48.214;11.350;2024-03-23T14:14:07;8.00;27.70
1025;DHT22;501;48.214;11.350;2024-03-23T14:16:33;7.90;26.80
1025;DHT22;501;48.214;11.350;2024-03-23T14:18:59;7.90;27.70
1025;DHT22;501;48.214;11.350;2024-03-23T14:21:25;7.90;29.00
1025;DHT22;501;48.214;11.350;2024-03-23T14:23:50;7.80;27.70
1025;DHT22;501;48.214;11.350;2024-03-23T14:26:16;7.80;27.70
1025;DHT22;501;48.214;11.350;2024-03-23T14:28:42;7.70;27.20
1025;DHT22;501;48.214;11.350;2024-03-23T14:31:07;7.70;28.00
1025;DHT22;501;48.214;11.350;2024-03-23T14:33:37;7.70;28.50
1025;DHT22;501;48.214;11.350;2024-03-23T14:36:03;7.70;29.50
1025;DHT22;501;48.214;11.350;2024-03-23T14:38:29;7.70;29.80
1025;DHT22;501;48.214;11.350;2024-03-23T14:40:59;7.80;30.00
1025;DHT22;501;48.214;11.350;2024-03-23T14:43:25;7.90;30.30
1025;DHT22;501;48.214;11.350;2024-03-23T14:48:32;7.90;30.30
1025;DHT22;501;48.214;11.350;2024-03-23T14:50:58;7.90;31.60
1025;DHT22;501;48.214;11.350;2024-03-23T14:53:25;8.00;30.30
1025;DHT22;501;48.214;11.350;2024-03-23T14:55:51;8.00;30.30
1025;DHT22;501;48.214;11.350;2024-03-23T14:58:19;8.00;32.00
1025;DHT22;501;48.214;11.350;2024-03-23T15:00:44;8.00;30.30
1025;DHT22;501;48.214;11.350;2024-03-23T15:03:10;8.00;31.30
1025;DHT22;501;48.214;11.350;2024-03-23T15:05:36;8.00;30.30
1025;DHT22;501;48.214;11.350;2024-03-23T15:08:02;7.90;31.70
1025;DHT22;501;48.214;11.350;2024-03-23T15:10:28;7.90;32.00
1025;DHT22;501;48.214;11.350;2024-03-23T15:12:54;7.80;32.90
1025;DHT22;501;48.214;11.350;2024-03-23T15:15:20;7.80;33.00
1025;DHT22;501;48.214;11.350;2024-03-23T15:17:46;7.80;33.60
1025;DHT22;501;48.214;11.350;2024-03-23T15:20:11;7.80;33.40
1025;DHT22;501;48.214;11.350;2024-03-23T15:22:37;7.80;34.10
1025;DHT22;501;48.214;11.350;2024-03-23T15:25:03;7.80;32.80
1025;DHT22;501;48.214;11.350;2024-03-23T15:27:29;7.90;34.10
1025;DHT22;501;48.214;11.350;2024-03-23T15:29:56;7.90;32.60
1025;DHT22;501;48.214;11.350;2024-03-23T15:32:23;8.00;32.70
1025;DHT22;501;48.214;11.350;2024-03-23T15:34:48;8.10;33.50
1025;DHT22;501;48.214;11.350;2024-03-23T15:37:15;8.20;32.40
1025;DHT22;501;48.214;11.350;2024-03-23T15:39:41;8.30;32.70
1025;DHT22;501;48.214;11.350;2024-03-23T15:42:07;8.50;34.00
1025;DHT22;501;48.214;11.350;2024-03-23T15:44:33;8.60;32.20
1025;DHT22;501;48.214;11.350;2024-03-23T15:46:59;8.80;31.40
1025;DHT22;501;48.214;11.350;2024-03-23T15:49:24;8.80;31.80
1025;DHT22;501;48.214;11.350;2024-03-23T15:51:50;8.80;31.00
1025;DHT22;501;48.214;11.350;2024-03-23T15:54:16;8.80;32.30
1025;DHT22;501;48.214;11.350;2024-03-23T15:56:41;8.90;32.60
1025;DHT22;501;48.214;11.350;2024-03-23T15:59:07;8.90;31.70
1025;DHT22;501;48.214;11.350;2024-03-23T16:04:08;9.20;31.40
1025;DHT22;501;48.214;11.350;2024-03-23T16:06:34;9.30;30.40
1025;DHT22;501;48.214;11.350;2024-03-23T16:08:59;9.30;29.30
1025;DHT22;501;48.214;11.350;2024-03-23T17:10:12;8.10;30.40
1025;DHT22;501;48.214;11.350;2024-03-23T17:15:17;8.10;30.40
1025;DHT22;501;48.214;11.350;2024-03-23T17:17:46;8.00;30.80
1025;DHT22;501;48.214;11.350;2024-03-23T17:20:13;8.00;31.60
1025;DHT22;501;48.214;11.350;2024-03-23T17:22:38;8.00;31.50
1025;DHT22;501;48.214;11.350;2024-03-23T17:25:05;7.80;33.90
1025;DHT22;501;48.214;11.350;2024-03-23T17:27:31;7.40;36.50
1025;DHT22;501;48.214;11.350;2024-03-23T17:29:57;7.10;38.70
1025;DHT22;501;48.214;11.350;2024-03-23T17:32:22;6.80;40.60
1025;DHT22;501;48.214;11.350;2024-03-23T17:34:48;6.70;41.20
1025;DHT22;501;48.214;11.350;2024-03-23T17:37:15;6.60;41.90
1025;DHT22;501;48.214;11.350;2024-03-23T17:39:42;6.40;42.50
1025;DHT22;501;48.214;11.350;2024-03-23T17:44:43;6.30;45.40
1025;DHT22;501;48.214;11.350;2024-03-23T17:47:09;6.10;46.70
1025;DHT22;501;48.214;11.350;2024-03-23T17:49:34;6.10;46.70
1025;DHT22;501;48.214;11.350;2024-03-23T17:52:08;6.00;46.60
1025;DHT22;501;48.214;11.350;2024-03-23T17:54:36;6.00;48.30
1025;DHT22;501;48.214;11.350;2024-03-23T17:57:02;6.00;48.50
1025;DHT22;501;48.214;11.350;2024-03-23T17:59:28;6.00;44.20
1025;DHT22;501;48.214;11.350;2024-03-23T18:01:53;6.00;43.90
1025;DHT22;501;48.214;11.350;2024-03-23T18:04:19;6.00;43.90
1025;DHT22;501;48.214;11.350;2024-03-23T18:06:45;5.90;43.10
1025;DHT22;501;48.214;11.350;2024-03-23T18:09:15;5.70;44.60
1025;DHT22;501;48.214;11.350;2024-03-23T18:11:42;5.60;46.30
1025;DHT22;501;48.214;11.350;2024-03-23T18:14:08;5.50;47.50
1025;DHT22;501;48.214;11.350;2024-03-23T18:16:33;5.30;48.00
1025;DHT22;501;48.214;11.350;2024-03-23T18:18:59;5.30;49.60
1025;DHT22;501;48.214;11.350;2024-03-23T18:21:25;5.20;49.40
1025;DHT22;501;48.214;11.350;2024-03-23T18:23:50;5.20;50.40
1025;DHT22;501;48.214;11.350;2024-03-23T18:26:16;5.10;51.00
1025;DHT22;501;48.214;11.350;2024-03-23T18:28:42;5.10;52.20
1025;DHT22;501;48.214;11.350;2024-03-23T18:31:07;5.00;51.40
1025;DHT22;501;48.214;11.350;2024-03-23T18:33:37;5.00;53.00
1025;DHT22;501;48.214;11.350;2024-03-23T18:36:05;5.00;53.20
1025;DHT22;501;48.214;11.350;2024-03-23T18:38:31;5.00;54.30
1025;DHT22;501;48.214;11.350;2024-03-23T18:40:56;5.00;53.50
1025;DHT22;501;48.214;11.350;2024-03-23T18:43:22;5.00;54.30
1025;DHT22;501;48.214;11.350;2024-03-23T18:45:52;5.10;54.30
1025;DHT22;501;48.214;11.350;2024-03-23T18:48:18;5.20;54.20
1025;DHT22;501;48.214;11.350;2024-03-23T18:50:44;5.20;52.10
1025;DHT22;501;48.214;11.350;2024-03-23T18:53:10;5.30;51.60
1025;DHT22;501;48.214;11.350;2024-03-23T18:55:40;5.30;52.30
1025;DHT22;501;48.214;11.350;2024-03-23T18:58:07;5.30;50.80
1025;DHT22;501;48.214;11.350;2024-03-23T19:00:33;5.40;50.10
1025;DHT22;501;48.214;11.350;2024-03-23T19:02:59;5.40;50.90
1025;DHT22;501;48.214;11.350;2024-03-23T19:05:25;5.40;49.00
1025;DHT22;501;48.214;11.350;2024-03-23T19:07:51;5.40;48.90
1025;DHT22;501;48.214;11.350;2024-03-23T19:10:18;5.40;48.90
1025;DHT22;501;48.214;11.350;2024-03-23T19:15:41;5.30;49.80
1025;DHT22;501;48.214;11.350;2024-03-23T19:18:07;5.30;50.00
1025;DHT22;501;48.214;11.350;2024-03-23T19:20:33;5.30;50.30
1025;DHT22;501;48.214;11.350;2024-03-23T19:22:59;5.30;50.00
1025;DHT22;501;48.214;11.350;2024-03-23T19:25:24;5.30;50.20
1025;DHT22;501;48.214;11.350;2024-03-23T19:27:50;5.30;49.10
1025;DHT22;501;48.214;11.350;2024-03-23T19:30:16;5.30;50.20
1025;DHT22;501;48.214;11.350;2024-03-23T19:35:17;5.30;50.20
1025;DHT22;501;48.214;11.350;2024-03-23T19:37:43;5.30;49.80
1025;DHT22;501;48.214;11.350;2024-03-23T19:40:09;5.30;49.70
1025;DHT22;501;48.214;11.350;2024-03-23T19:42:35;5.30;49.00
1025;DHT22;501;48.214;11.350;2024-03-23T19:45:02;5.30;49.70
1025;DHT22;501;48.214;11.350;2024-03-23T19:47:30;5.30;49.10
1025;DHT22;501;48.214;11.350;2024-03-23T19:49:56;5.30;49.30
1025;DHT22;501;48.214;11.350;2024-03-23T19:52:23;5.50;49.00
1025;DHT22;501;48.214;11.350;2024-03-23T19:54:49;5.50;48.40
1025;DHT22;501;48.214;11.350;2024-03-23T19:57:15;5.50;47.60
1025;DHT22;501;48.214;11.350;2024-03-23T19:59:41;5.50;47.10
1025;DHT22;501;48.214;11.350;2024-03-23T20:02:08;5.50;46.70
1025;DHT22;501;48.214;11.350;2024-03-23T20:04:34;5.50;46.20
1025;DHT22;501;48.214;11.350;2024-03-23T20:06:59;5.50;46.10
1025;DHT22;501;48.214;11.350;2024-03-23T20:09:25;5.50;45.40
1025;DHT22;501;48.214;11.350;2024-03-23T20:11:54;5.50;46.00
1025;DHT22;501;48.214;11.350;2024-03-23T20:14:20;5.50;45.40
1025;DHT22;501;48.214;11.350;2024-03-23T20:16:46;5.50;46.20
1025;DHT22;501;48.214;11.350;2024-03-23T20:19:11;5.60;46.30
1025;DHT22;501;48.214;11.350;2024-03-23T20:21:37;5.50;45.00
1025;DHT22;501;48.214;11.350;2024-03-23T20:24:03;5.50;45.60
1025;DHT22;501;48.214;11.350;2024-03-23T20:26:29;5.50;45.40
1025;DHT22;501;48.214;11.350;2024-03-23T20:28:55;5.40;44.90
1025;DHT22;501;48.214;11.350;2024-03-23T20:31:21;5.40;44.50
1025;DHT22;501;48.214;11.350;2024-03-23T20:33:46;5.40;45.40
1025;DHT22;501;48.214;11.350;2024-03-23T20:36:13;5.40;45.10
1025;DHT22;501;48.214;11.350;2024-03-23T20:38:39;5.40;45.10
1025;DHT22;501;48.214;11.350;2024-03-23T20:41:04;5.40;45.20
1025;DHT22;501;48.214;11.350;2024-03-23T20:43:30;5.30;46.00
1025;DHT22;501;48.214;11.350;2024-03-23T20:45:58;5.30;46.00
1025;DHT22;501;48.214;11.350;2024-03-23T20:48:24;5.30;46.00
1025;DHT22;501;48.214;11.350;2024-03-23T20:50:59;5.30;46.00
1025;DHT22;501;48.214;11.350;2024-03-23T20:53:26;5.30;46.50
1025;DHT22;501;48.214;11.350;2024-03-23T20:55:56;5.30;45.60
1025;DHT22;501;48.214;11.350;2024-03-23T20:58:27;5.30;45.50
1025;DHT22;501;48.214;11.350;2024-03-23T21:01:00;5.30;46.00
1025;DHT22;501;48.214;11.350;2024-03-23T21:03:27;5.30;46.00
1025;DHT22;501;48.214;11.350;2024-03-23T21:05:53;5.30;46.00
1025;DHT22;501;48.214;11.350;2024-03-23T21:08:19;5.30;46.00
1025;DHT22;501;48.214;11.350;2024-03-23T21:10:49;5.30;46.00
1025;DHT22;501;48.214;11.350;2024-03-23T21:13:16;5.30;46.00
1025;DHT22;501;48.214;11.350;2024-03-23T21:15:52;5.30;45.50
1025;DHT22;501;48.214;11.350;2024-03-23T21:18:19;5.30;44.40
1025;DHT22;501;48.214;11.350;2024-03-23T21:20:45;5.20;45.20
1025;DHT22;501;48.214;11.350;2024-03-23T21:23:12;5.20;45.50
1025;DHT22;501;48.214;11.350;2024-03-23T21:25:39;5.20;45.50
1025;DHT22;501;48.214;11.350;2024-03-23T21:28:06;5.30;45.70
1025;DHT22;501;48.214;11.350;2024-03-23T21:30:34;5.30;44.70
1025;DHT22;501;48.214;11.350;2024-03-23T21:33:00;5.20;45.10
1025;DHT22;501;48.214;11.350;2024-03-23T21:35:26;5.20;44.70
1025;DHT22;501;48.214;11.350;2024-03-23T21:37:53;5.20;44.30
1025;DHT22;501;48.214;11.350;2024-03-23T21:40:18;5.20;45.00
1025;DHT22;501;48.214;11.350;2024-03-23T21:42:44;5.10;44.80
1025;DHT22;501;48.214;11.350;2024-03-23T21:45:11;5.10;45.70
1025;DHT22;501;48.214;11.350;2024-03-23T21:47:36;5.00;45.20
1025;DHT22;501;48.214;11.350;2024-03-23T21:50:02;5.00;45.70
1025;DHT22;501;48.214;11.350;2024-03-23T21:52:28;5.00;45.70
1025;DHT22;501;48.214;11.350;2024-03-23T21:54:54;4.90;45.70
1025;DHT22;501;48.214;11.350;2024-03-23T21:57:20;4.90;46.90
1025;DHT22;501;48.214;11.350;2024-03-23T21:59:46;4.90;46.50
1025;DHT22;501;48.214;11.350;2024-03-23T22:02:12;4.90;46.00
1025;DHT22;501;48.214;11.350;2024-03-23T22:04:37;4.80;46.30
1025;DHT22;501;48.214;11.350;2024-03-23T22:07:03;4.70;46.90
1025;DHT22;501;48.214;11.350;2024-03-23T22:09:29;4.70;47.60
1025;DHT22;501;48.214;11.350;2024-03-23T22:11:55;4.70;47.70
1025;DHT22;501;48.214;11.350;2024-03-23T22:14:22;4.70;47.70
1025;DHT22;501;48.214;11.350;2024-03-23T22:16:48;4.60;47.50
1025;DHT22;501;48.214;11.350;2024-03-23T22:19:13;4.70;48.00
1025;DHT22;501;48.214;11.350;2024-03-23T22:21:39;4.70;48.20
1025;DHT22;501;48.214;11.350;2024-03-23T22:24:05;4.70;46.90
1025;DHT22;501;48.214;11.350;2024-03-23T22:26:31;4.70;47.30
1025;DHT22;501;48.214;11.350;2024-03-23T22:28:56;4.80;47.20
1025;DHT22;501;48.214;11.350;2024-03-23T22:31:22;4.80;46.70
1025;DHT22;501;48.214;11.350;2024-03-23T22:33:48;4.80;47.20
1025;DHT22;501;48.214;11.350;2024-03-23T22:36:13;4.80;47.00
1025;DHT22;501;48.214;11.350;2024-03-23T22:38:39;4.80;46.30
1025;DHT22;501;48.214;11.350;2024-03-23T22:41:05;4.80;46.40
1025;DHT22;501;48.214;11.350;2024-03-23T22:43:32;4.80;45.60
1025;DHT22;501;48.214;11.350;2024-03-23T22:46:00;4.80;45.60
1025;DHT22;501;48.214;11.350;2024-03-23T22:48:27;4.70;45.90
1025;DHT22;501;48.214;11.350;2024-03-23T22:50:55;4.70;45.50
1025;DHT22;501;48.214;11.350;2024-03-23T22:53:25;4.60;45.70
1025;DHT22;501;48.214;11.350;2024-03-23T22:55:52;4.60;46.00
1025;DHT22;501;48.214;11.350;2024-03-23T22:58:19;4.70;45.90
1025;DHT22;501;48.214;11.350;2024-03-23T23:00:45;4.70;46.30
1025;DHT22;501;48.214;11.350;2024-03-23T23:03:15;4.70;46.40
1025;DHT22;501;48.214;11.350;2024-03-23T23:05:56;4.70;46.80
1025;DHT22;501;48.214;11.350;2024-03-23T23:08:22;4.70;47.20
1025;DHT22;501;48.214;11.350;2024-03-23T23:10:47;4.70;45.80
1025;DHT22;501;48.214;11.350;2024-03-23T23:13:13;4.70;47.10
1025;DHT22;501;48.214;11.350;2024-03-23T23:15:39;4.70;47.40
1025;DHT22;501;48.214;11.350;2024-03-23T23:18:04;4.70;47.50
1025;DHT22;501;48.214;11.350;2024-03-23T23:20:32;4.70;47.10
1025;DHT22;501;48.214;11.350;2024-03-23T23:22:58;4.70;46.70
1025;DHT22;501;48.214;11.350;2024-03-23T23:25:24;4.70;47.00
1025;DHT22;501;48.214;11.350;2024-03-23T23:27:50;4.70;47.60
1025;DHT22;501;48.214;11.350;2024-03-23T23:30:16;4.70;47.70